Latest Weather Observations for Cobar

IDN60801

Issued at 1:35 am EST Sunday 29 May 2016 (issued every 30 minutes, with the page automatically refreshed every 10 minutes)

About weather observations | Map of weather stations | Latest weather observations for NSW | Other Formats
Station Details ID: 048027 Name: COBAR MO Lat: -31.48 Lon: 145.83 Height: 260.0 m
Data from the previous 72 hours. | See also: Recent months at Cobar
Date/Time
EST
Temp
°C
App
Temp
°C
Dew
Point
Rel
Hum
%
Delta-T
°C
Wind Press
QNH
hPa
Press
MSL
hPa
Rain
since 9 am
mm
Dir
 
Spd
km/h
Gust
km/h
Spd
kts
Gust
kts
29/01:30am 10.2 8.6 8.2 87 1.0 SW 6 9 3 5 1018.8 1018.6 0.8
29/01:00am 10.2 8.4 8.0 86 1.1 SSW 7 11 4 6 1018.8 1018.6 0.8
29/12:30am 10.2 8.6 8.0 86 1.1 SW 6 9 3 5 1018.7 1018.5 0.8
29/12:00am 10.3 8.1 7.8 84 1.2 SSW 9 11 5 6 1018.8 1018.6 0.8
 
Date/Time
EST
Temp
°C
App
Temp
°C
Dew
Point
Rel
Hum
%
Delta-T
°C
Wind Press
QNH
hPa
Press
MSL
hPa
Rain
since 9 am
mm
Dir
 
Spd
km/h
Gust
km/h
Spd
kts
Gust
kts
28/11:30pm 10.3 8.5 7.8 84 1.2 SW 7 9 4 5 1019.0 1018.8 0.8
28/11:00pm 10.5 8.3 7.8 83 1.3 SSW 9 13 5 7 1018.8 1018.6 0.8
28/10:30pm 10.7 8.5 7.8 82 1.4 SSW 9 13 5 7 1018.8 1018.6 0.8
28/10:00pm 10.8 8.6 7.9 82 1.4 WSW 9 13 5 7 1018.5 1018.2 0.8
28/09:30pm 10.8 9.0 7.9 82 1.4 WSW 7 9 4 5 1018.4 1018.1 0.8
28/09:00pm 10.9 9.1 7.8 81 1.5 WSW 7 9 4 5 1018.1 1017.8 0.8
28/08:30pm 11.0 9.1 7.7 80 1.6 WSW 7 9 4 5 1017.8 1017.5 0.8
28/08:00pm 11.2 8.8 7.1 76 2.0 WSW 9 13 5 7 1017.4 1017.1 0.8
28/07:30pm 11.2 8.8 7.1 76 2.0 WSW 9 13 5 7 1017.0 1016.7 0.8
28/07:00pm 11.4 8.2 6.8 73 2.2 W 13 20 7 11 1016.5 1016.2 0.8
28/06:30pm 11.3 8.0 6.5 72 2.3 W 13 19 7 10 1016.1 1015.9 0.8
28/06:00pm 10.7 7.4 6.3 74 2.1 W 13 19 7 10 1015.8 1015.6 0.8
28/05:30pm 11.0 6.8 5.9 71 2.4 WSW 17 24 9 13 1015.4 1015.2 0.8
28/05:00pm 11.7 7.5 5.5 66 2.9 WSW 17 22 9 12 1014.9 1014.6 0.8
28/04:30pm 12.5 8.0 6.0 64 3.1 WSW 19 28 10 15 1014.5 1014.2 0.8
28/04:00pm 12.8 7.7 6.1 64 3.2 WSW 22 30 12 16 1014.4 1014.1 0.8
28/03:30pm 12.6 7.2 6.4 66 3.0 WSW 24 35 13 19 1014.4 1014.1 0.8
28/03:00pm 11.7 6.5 7.2 74 2.2 WSW 24 35 13 19 1014.1 1013.8 0.8
28/02:30pm 12.0 6.8 7.1 72 2.4 WSW 24 35 13 19 1013.7 1013.4 0.8
28/02:00pm 11.7 7.6 7.9 77 1.9 WSW 19 32 10 17 1013.4 1013.1 0.8
28/01:30pm 11.4 7.2 8.2 81 1.6 W 20 32 11 17 1013.3 1013.0 0.8
28/01:11pm 10.1 4.8 8.3 88 0.9 WSW 26 41 14 22 1013.4 1013.1 0.6
28/01:00pm 11.4 6.1 6.8 73 2.2 WSW 24 35 13 19 1013.1 1012.8 0.4
28/12:46pm 11.1 5.9 7.4 78 1.8 WSW 24 35 13 19 1013.1 1012.8 0.4
28/12:30pm 10.3 5.3 8.1 86 1.1 WSW 24 35 13 19 1013.1 1012.8 0.4
28/12:25pm 10.6 5.7 8.6 87 1.0 W 24 33 13 18 1013.1 1012.8 0.4
28/12:00pm 11.7 6.0 6.7 71 2.4 WSW 26 33 14 18 1012.9 1012.6 0.4
28/11:30am 10.8 4.7 6.6 75 2.0 W 28 43 15 23 1012.9 1012.6 0.4
28/11:00am 10.3 4.7 7.2 81 1.5 W 26 43 14 23 1012.9 1012.6 0.4
28/10:45am 9.7 2.9 7.0 83 1.3 WSW 32 44 17 24 1012.9 1012.6 0.4
28/10:39am 9.9 4.0 7.4 84 1.2 WSW 28 43 15 23 1013.0 1012.7 0.4
28/10:30am 9.6 4.6 8.0 90 0.8 WSW 24 35 13 19 1012.9 1012.6 0.4
28/10:21am 9.2 5.6 8.4 95 0.4 WSW 17 26 9 14 1012.9 1012.6 0.2
28/10:20am 9.3 5.7 8.5 95 0.4 WSW 17 26 9 14 1012.8 1012.5 0.2
28/10:10am 9.1 4.9 8.1 93 0.5 WSW 20 28 11 15 1012.6 1012.3 0.2
28/10:00am 9.0 4.7 7.8 92 0.6 W 20 33 11 18 1012.5 1012.2 0.2
28/09:46am 9.3 4.1 7.2 87 1.0 W 24 41 13 22 1012.1 1011.9 0.0
28/09:30am 9.4 4.9 7.1 85 1.1 W 20 33 11 18 1011.8 1011.5 0.0
28/09:28am 9.3 4.9 7.2 87 1.0 W 20 33 11 18 1011.8 1011.5 0.0
28/09:04am 9.2 4.7 6.9 85 1.1 W 20 32 11 17 1011.6 1011.3 0.0
28/09:00am 9.2 4.9 6.9 85 1.1 WNW 19 30 10 16 1011.5 1011.2 3.6
28/08:30am 9.1 4.6 7.0 87 1.0 WNW 20 32 11 17 1011.3 1011.0 3.6
28/08:00am 9.1 5.2 7.2 88 0.9 WNW 17 24 9 13 1011.0 1010.7 3.6
28/07:30am 8.6 4.7 6.9 89 0.8 WNW 17 24 9 13 1010.9 1010.6 3.6
28/07:00am 8.2 5.1 7.4 95 0.4 NW 13 20 7 11 1010.8 1010.5 3.6
28/06:30am 7.8 4.7 7.2 96 0.3 WNW 13 19 7 10 1010.5 1010.2 3.6
28/06:00am 7.8 4.6 7.0 95 0.4 NW 13 20 7 11 1010.3 1010.0 3.6
28/05:30am 8.0 4.9 7.2 95 0.4 NW 13 17 7 9 1010.3 1010.0 3.6
28/05:00am 7.7 4.6 7.1 96 0.3 NW 13 17 7 9 1010.0 1009.7 3.6
28/04:30am 7.5 4.7 6.9 96 0.3 WNW 11 15 6 8 1010.1 1009.8 3.6
28/04:00am 7.6 4.9 7.2 97 0.2 WNW 11 17 6 9 1010.2 1009.9 3.6
28/03:30am 7.8 5.1 7.2 96 0.3 WNW 11 15 6 8 1010.1 1009.8 3.4
28/03:00am 8.3 6.0 7.5 95 0.4 WNW 9 15 5 8 1010.0 1009.7 3.4
28/02:30am 8.7 6.4 7.5 92 0.6 WNW 9 15 5 8 1010.3 1010.0 3.4
28/02:21am 8.7 5.7 7.5 92 0.6 W 13 22 7 12 1010.3 1010.0 3.4
28/02:06am 9.0 5.1 7.3 89 0.8 WSW 17 24 9 13 1010.7 1010.4 3.2
28/02:00am 9.1 5.3 7.4 89 0.8 WSW 17 24 9 13 1010.9 1010.6 2.6
28/01:41am 9.3 5.2 7.9 91 0.7 WSW 19 37 10 20 1010.8 1010.5 2.2
28/01:30am 9.5 4.2 8.3 92 0.6 WSW 26 39 14 21 1011.0 1010.7 2.0
28/01:15am 10.7 5.8 8.3 85 1.2 W 24 46 13 25 1010.5 1010.2 1.6
28/01:00am 10.0 7.1 8.2 88 0.9 NNW 13 19 7 10 1009.4 1009.1 1.6
28/12:39am 10.3 6.7 8.3 87 1.0 N 17 24 9 13 1009.6 1009.3 1.6
28/12:30am 11.0 6.7 8.0 82 1.5 NNW 20 30 11 16 1009.9 1009.6 1.6
28/12:19am 11.1 7.5 8.3 83 1.4 NW 17 32 9 17 1010.7 1010.4 1.2
28/12:00am 11.6 7.7 7.1 74 2.2 NNW 17 22 9 12 1010.3 1010.0 0.0
 
Date/Time
EST
Temp
°C
App
Temp
°C
Dew
Point
Rel
Hum
%
Delta-T
°C
Wind Press
QNH
hPa
Press
MSL
hPa
Rain
since 9 am
mm
Dir
 
Spd
km/h
Gust
km/h
Spd
kts
Gust
kts
27/11:30pm 11.3 8.3 7.6 78 1.8 NNW 13 19 7 10 1010.7 1010.4 0.0
27/11:00pm 10.4 7.7 7.3 81 1.5 NNW 11 17 6 9 1011.0 1010.7 0.0
27/10:30pm 10.1 7.3 6.8 80 1.6 N 11 13 6 7 1011.2 1010.9 0.0
27/10:00pm 11.0 7.7 6.6 74 2.1 N 13 17 7 9 1011.6 1011.3 0.0
27/09:30pm 11.2 8.0 6.8 74 2.1 N 13 17 7 9 1011.8 1011.5 0.0
27/09:00pm 11.1 7.8 6.5 73 2.2 N 13 17 7 9 1011.8 1011.5 0.0
27/08:30pm 10.5 7.3 6.7 77 1.8 N 13 15 7 8 1011.9 1011.6 0.0
27/08:00pm 10.5 7.6 6.7 77 1.8 NNW 11 15 6 8 1012.1 1011.9 0.0
27/07:30pm 10.8 7.9 6.6 75 2.0 N 11 15 6 8 1012.0 1011.8 0.0
27/07:00pm 10.7 8.2 6.7 76 1.9 N 9 13 5 7 1011.9 1011.6 0.0
27/06:30pm 11.6 9.5 6.8 72 2.3 NNW 7 9 4 5 1011.7 1011.4 0.0
27/06:00pm 12.4 10.0 7.1 70 2.6 WNW 9 11 5 6 1011.8 1011.5 0.0
27/05:30pm 13.2 10.7 6.6 64 3.2 WNW 9 13 5 7 1011.4 1011.1 0.0
27/05:00pm 14.5 10.3 5.6 55 4.3 WNW 17 24 9 13 1011.2 1010.9 0.0
27/04:30pm 14.9 11.5 5.8 54 4.4 W 13 20 7 11 1011.1 1010.8 0.0
27/04:00pm 14.9 10.6 5.3 52 4.6 WNW 17 26 9 14 1011.0 1010.7 0.0
27/03:30pm 15.3 12.1 6.9 57 4.2 WNW 13 24 7 13 1010.8 1010.5 0.0
27/03:00pm 16.1 11.7 6.4 52 4.8 WNW 19 26 10 14 1010.8 1010.5 0.0
27/02:30pm 16.1 11.3 4.9 47 5.4 W 19 32 10 17 1010.9 1010.6 0.0
27/02:00pm 16.0 11.3 5.2 48 5.2 W 19 30 10 16 1011.0 1010.7 0.0
27/01:30pm 16.0 11.1 5.2 48 5.2 WNW 20 30 11 16 1011.2 1010.9 0.0
27/01:00pm 15.2 10.4 5.7 53 4.6 WNW 20 28 11 15 1011.5 1011.2 0.0
27/12:30pm 15.0 11.3 6.5 57 4.2 W 15 24 8 13 1011.8 1011.5 0.0
27/12:00pm 14.0 9.5 5.9 58 3.9 W 19 30 10 16 1012.2 1012.0 0.0
27/11:30am 14.3 9.8 6.3 58 3.9 WSW 19 30 10 16 1012.9 1012.6 0.0
27/11:00am 14.2 10.4 7.4 63 3.4 W 17 24 9 13 1013.2 1012.9 0.0
27/10:30am 12.7 9.6 7.2 69 2.7 W 13 20 7 11 1013.1 1012.8 0.0
27/10:00am 12.3 9.7 7.6 73 2.3 W 11 15 6 8 1013.3 1013.0 0.0
27/09:30am 11.0 8.5 8.2 83 1.4 W 11 15 6 8 1013.3 1013.0 0.0
27/09:00am 9.7 8.1 8.9 95 0.4 W 7 9 4 5 1012.9 1012.6 0.4
27/08:30am 8.6 7.0 8.2 97 0.2 WNW 6 9 3 5 1012.7 1012.4 0.4
27/08:00am 8.1 6.2 7.7 97 0.2 NW 7 9 4 5 1012.4 1012.1 0.4
27/07:48am 7.8 5.9 7.4 97 0.2 WNW 7 7 4 4 1012.1 1011.9 0.4
27/07:30am 7.5 5.6 7.5 100 0.0 WNW 7 9 4 5 1012.0 1011.8 0.4
27/07:00am 7.7 5.4 7.5 99 0.1 WNW 9 11 5 6 1011.9 1011.6 0.4
27/06:41am 7.8 5.5 7.6 99 0.1 WNW 9 11 5 6 1011.8 1011.5 0.4
27/06:30am 8.0 5.8 7.8 99 0.1 W 9 13 5 7 1011.6 1011.3 0.4
27/06:00am 8.7 6.6 8.3 97 0.2 WSW 9 11 5 6 1011.4 1011.1 0.4
27/05:30am 8.8 6.7 8.2 96 0.3 W 9 13 5 7 1011.3 1011.0 0.4
27/05:00am 9.1 7.1 8.7 97 0.2 W 9 13 5 7 1011.1 1010.8 0.4
27/04:30am 9.1 7.1 8.7 97 0.2 WSW 9 13 5 7 1011.0 1010.7 0.2
27/04:00am 9.3 7.3 8.7 96 0.3 WSW 9 15 5 8 1010.8 1010.5 0.2
27/03:30am 9.4 7.5 9.0 97 0.2 WSW 9 13 5 7 1010.6 1010.3 0.2
27/03:00am 9.8 7.9 9.2 96 0.3 WSW 9 11 5 6 1010.6 1010.3 0.2
27/02:30am 10.0 8.2 9.4 96 0.3 SW 9 11 5 6 1010.5 1010.2 0.2
27/02:00am 10.4 8.6 9.6 95 0.4 WSW 9 11 5 6 1010.4 1010.1 0.2
27/01:30am 10.7 8.6 9.9 95 0.4 SW 11 15 6 8 1010.2 1009.9 0.2
27/01:00am 10.8 8.8 10.2 96 0.3 SW 11 15 6 8 1010.3 1010.0 0.2
27/12:30am 11.1 9.1 10.3 95 0.4 SW 11 15 6 8 1010.3 1010.0 0.2
27/12:00am 11.3 9.3 10.3 94 0.5 SW 11 15 6 8 1010.3 1010.0 0.2
 
Date/Time
EST
Temp
°C
App
Temp
°C
Dew
Point
Rel
Hum
%
Delta-T
°C
Wind Press
QNH
hPa
Press
MSL
hPa
Rain
since 9 am
mm
Dir
 
Spd
km/h
Gust
km/h
Spd
kts
Gust
kts
26/11:30pm 11.5 9.6 10.5 94 0.5 SW 11 15 6 8 1010.3 1010.0 0.2
26/11:00pm 11.3 9.4 10.5 95 0.4 SW 11 15 6 8 1010.3 1010.0 0.2
26/10:30pm 11.6 9.8 10.8 95 0.4 SW 11 13 6 7 1009.9 1009.6 0.2
26/10:00pm 11.9 10.1 11.0 94 0.5 SW 11 13 6 7 1010.0 1009.7 0.2
26/09:30pm 12.1 10.7 11.0 93 0.6 WSW 9 11 5 6 1009.7 1009.4 0.2
26/09:00pm 12.6 10.9 11.1 91 0.8 SW 11 15 6 8 1009.7 1009.4 0.2
26/08:30pm 13.3 10.9 11.4 88 1.0 SW 15 20 8 11 1009.6 1009.3 0.2
26/08:00pm 13.4 11.4 11.6 89 1.0 SW 13 19 7 10 1009.3 1009.0 0.2
26/07:30pm 14.1 11.8 11.7 85 1.3 WSW 15 20 8 11 1008.9 1008.6 0.2
26/07:00pm 14.5 13.1 12.3 87 1.2 W 11 13 6 7 1008.8 1008.4 0.2
26/06:30pm 14.9 13.1 12.2 84 1.5 W 13 17 7 9 1008.0 1007.7 0.2
26/06:00pm 15.3 13.9 12.2 82 1.7 W 11 15 6 8 1007.8 1007.5 0.2
26/05:30pm 15.6 14.6 12.4 81 1.8 W 9 15 5 8 1007.3 1007.0 0.2
26/05:00pm 16.1 13.9 12.1 77 2.2 WNW 15 20 8 11 1006.9 1006.6 0.2
26/04:30pm 16.4 14.2 12.1 76 2.4 W 15 20 8 11 1006.9 1006.6 0.2
26/04:00pm 16.9 14.9 12.6 76 2.4 W 15 20 8 11 1006.7 1006.4 0.2
26/03:30pm 15.9 12.9 12.7 81 1.8 W 20 30 11 16 1006.7 1006.4 0.2
26/03:00pm 16.2 13.9 13.0 81 1.8 W 17 24 9 13 1006.5 1006.2 0.2
26/02:30pm 16.5 14.5 12.8 79 2.1 W 15 22 8 12 1006.2 1005.9 0.2
26/02:01pm 16.4 14.1 13.0 80 1.9 WNW 17 24 9 13 1006.1 1005.8 0.2
26/02:00pm 16.4 14.1 13.0 80 1.9 WNW 17 24 9 13 1006.1 1005.8 0.2
26/01:30pm 16.0 13.8 13.4 84 1.5 NW 17 24 9 13 1006.3 1006.0 0.2
26/01:08pm 16.1 13.8 13.1 82 1.7 NW 17 24 9 13 1006.7 1006.4 0.2
26/01:04pm 16.2 14.0 13.2 82 1.7 NW 17 24 9 13 1006.7 1006.4 0.2
26/01:00pm 16.2 14.0 13.2 82 1.7 WNW 17 24 9 13 1006.6 1006.3 0.2
26/12:48pm 16.4 14.5 13.0 80 1.9 WNW 15 24 8 13 1006.6 1006.3 0.2
26/12:30pm 16.3 13.4 12.9 80 1.9 WNW 20 28 11 15 1006.9 1006.6 0.2
26/12:19pm 16.5 13.7 13.2 81 1.9 NW 20 28 11 15 1006.7 1006.4 0.2
26/12:00pm 15.8 13.2 13.1 84 1.5 NW 19 30 10 16 1007.4 1007.1 0.2
26/11:39am 15.2 12.2 12.7 85 1.4 NW 20 28 11 15 1008.1 1007.8 0.2
26/11:30am 15.3 12.3 12.4 83 1.6 NW 20 26 11 14 1008.0 1007.7 0.2
26/11:00am 14.4 11.4 12.0 85 1.3 NW 19 22 10 12 1008.1 1007.8 0.2
26/10:30am 13.2 10.8 11.3 88 1.0 NNW 15 22 8 12 1008.7 1008.3 0.2
26/10:00am 12.0 9.7 10.3 89 0.9 N 13 17 7 9 1009.1 1008.8 0.2
26/09:30am 11.5 8.1 9.3 86 1.1 N 17 24 9 13 1009.1 1008.8 0.2
26/09:00am 11.6 7.9 9.5 87 1.1 N 19 26 10 14 1008.9 1008.6 18.0
26/08:30am 11.5 7.7 8.9 84 1.3 NNE 19 26 10 14 1008.8 1008.4 18.0
26/08:00am 10.6 6.6 9.0 90 0.8 NNE 20 30 11 16 1008.9 1008.6 18.0
26/07:30am 10.4 5.6 8.8 90 0.8 NNE 24 33 13 18 1008.9 1008.6 18.0
26/07:00am 10.4 6.4 9.2 92 0.6 NNE 20 28 11 15 1009.8 1009.5 18.0
26/06:55am 10.5 6.6 9.3 92 0.6 NNE 20 26 11 14 1010.3 1010.0 17.6
26/06:30am 10.4 7.0 9.2 92 0.6 NNE 17 24 9 13 1010.7 1010.4 15.8
26/06:29am 10.4 6.6 9.2 92 0.6 NNE 19 24 10 13 1010.6 1010.3 15.6
26/06:00am 10.7 7.3 9.1 90 0.8 NNE 17 20 9 11 1010.4 1010.1 13.4
26/05:34am 10.7 7.7 9.1 90 0.8 NNE 15 19 8 10 1010.0 1009.7 12.8
26/05:30am 10.5 7.5 9.3 92 0.6 NNE 15 19 8 10 1009.9 1009.6 12.6
26/05:00am 10.5 7.1 9.1 91 0.7 NE 17 22 9 12 1010.0 1009.7 10.4
26/04:43am 10.5 7.1 9.1 91 0.7 NNE 17 24 9 13 1011.0 1010.7 9.4
26/04:40am 10.6 7.2 9.0 90 0.8 NNE 17 24 9 13 1010.6 1010.3 9.0
26/04:30am 10.6 7.2 9.2 91 0.7 NNE 17 22 9 12 1010.4 1010.1 8.6
26/04:18am 10.7 7.3 9.1 90 0.8 NNE 17 24 9 13 1010.7 1010.4 7.6
26/04:00am 10.9 7.9 9.1 89 0.9 NNE 15 20 8 11 1011.3 1011.0 6.0
26/03:30am 11.0 8.8 9.4 90 0.8 NNE 11 13 6 7 1011.5 1011.2 5.2
26/03:10am 11.1 9.3 9.3 89 0.9 NE 9 11 5 6 1011.9 1011.6 4.6
26/03:00am 11.1 9.3 9.3 89 0.9 NE 9 13 5 7 1012.1 1011.9 4.4
26/02:40am 11.1 8.9 9.3 89 0.9 NNE 11 15 6 8 1012.1 1011.9 3.6
26/02:30am 11.2 9.0 9.2 87 1.0 N 11 13 6 7 1012.6 1012.3 3.0
26/02:23am 11.2 8.6 9.2 87 1.0 N 13 15 7 8 1012.6 1012.3 2.8
26/02:05am 11.1 8.5 9.5 90 0.8 N 13 15 7 8 1012.8 1012.5 2.2
26/02:00am 11.2 9.0 9.4 89 0.9 N 11 13 6 7 1013.3 1013.0 2.0

Other Formats:

Comma delimited format used in spreadsheet applications
http://www.bom.gov.au/fwo/IDN60801/IDN60801.94711.axf

JavaScript Object Notation format (JSON) in row-major order
http://www.bom.gov.au/fwo/IDN60801/IDN60801.94711.json